Terminal Aerodrome Forecast
Issued by NWS

Home | Current Version | Previous Version | Text Only | Print | Product List | Glossary On
Versions: 1 2 3 4 5 6 7 8 9 10 11 12 13 14 15 16 17 18 19 20 21
000
FTUS43 KDTX 012323
TAFMBS
TAF
KMBS 012323Z 0200/0224 22004KT P6SM SKC
     FM020600 22004KT 4SM BR SKC
     FM020800 22004KT 1SM BR SCT003
     FM021400 24006KT P6SM SCT035
     FM021700 25008KT P6SM BKN040=

USA.gov is the U.S. government's official web portal to all federal, state and local government web resources and services.